Colchester

*Note: All times are displayed in the local standard time of the station location.
**Rain - Equipment is designed to accurately record liquid precipitation; under conditions when precipitation is not in liquid form, the data displayed may not properly reflect rainfall values.

Date Max Temp
(°C)
Min Temp
(°C)
Avg Temp
(°C)
Rain (mm) Avg RH (%)
Fri, Aug 23, 2019 24.0 10.8 17.7 - 74.6
Thu, Aug 22, 2019 24.2 15.1 20.9 - 77.0
Wed, Aug 21, 2019 28.1 20.0 24.0 - 90.2
Tue, Aug 20, 2019 28.8 19.6 24.4 - 92.6
Mon, Aug 19, 2019 25.9 18.6 22.7 - 92.9
Sun, Aug 18, 2019 26.6 19.8 23.6 - 90.7
Sat, Aug 17, 2019 27.5 20.5 24.3 - 90.7
DateTime Avg Temp (°C) Rain (mm) RH (%)
Sat, Aug 24, 2019 18:00 21.9 - 53.6
Sat, Aug 24, 2019 17:00 22.2 - 55.3
Sat, Aug 24, 2019 16:00 21.8 - 56.6
Sat, Aug 24, 2019 15:00 21.8 - 55.6
Sat, Aug 24, 2019 14:00 22.0 - 53.6
Sat, Aug 24, 2019 13:00 21.3 - 54.2
Sat, Aug 24, 2019 12:00 20.5 - 58.9
Sat, Aug 24, 2019 11:00 19.7 - 64.3
Sat, Aug 24, 2019 10:00 18.2 - 71.5
Sat, Aug 24, 2019 09:00 15.2 - 84.4
Sat, Aug 24, 2019 08:00 11.7 - 96.9
Sat, Aug 24, 2019 07:00 10.4 - 99.8
Sat, Aug 24, 2019 06:00 10.8 - 99.8
Sat, Aug 24, 2019 05:00 10.8 - 99.9
Sat, Aug 24, 2019 04:00 11.2 - 98.9
Sat, Aug 24, 2019 03:00 11.2 - 98.5
Sat, Aug 24, 2019 02:00 12.2 - 93.6
Sat, Aug 24, 2019 01:00 13.0 - 89.8
Sat, Aug 24, 2019 00:00 13.7 - 87.4
Fri, Aug 23, 2019 23:00 14.5 - 85.6
Fri, Aug 23, 2019 22:00 15.4 - 85.3
Fri, Aug 23, 2019 21:00 17.6 - 74.7
Fri, Aug 23, 2019 20:00 20.2 - 66.0
Fri, Aug 23, 2019 19:00 21.7 - 61.6
Fri, Aug 23, 2019 18:00 23.4 - 51.1
Fri, Aug 23, 2019 17:00 23.9 - 45.5
Fri, Aug 23, 2019 16:00 23.8 - 47.2
Fri, Aug 23, 2019 15:00 23.7 - 47.0
Fri, Aug 23, 2019 14:00 23.0 - 47.7
Fri, Aug 23, 2019 13:00 22.4 - 50.3
Fri, Aug 23, 2019 12:00 21.2 - 57.7
Fri, Aug 23, 2019 11:00 20.7 - 67.9
Fri, Aug 23, 2019 10:00 19.1 - 78.2
Fri, Aug 23, 2019 09:00 16.5 - 85.0
Fri, Aug 23, 2019 08:00 13.3 - 95.0
Fri, Aug 23, 2019 07:00 11.0 - 99.9
Fri, Aug 23, 2019 06:00 11.2 - 99.9
Fri, Aug 23, 2019 05:00 11.3 - 99.9
Fri, Aug 23, 2019 04:00 12.6 - 95.6
Fri, Aug 23, 2019 03:00 13.4 - 91.8
Fri, Aug 23, 2019 02:00 14.7 - 87.0
Fri, Aug 23, 2019 01:00 15.7 - 84.2
Fri, Aug 23, 2019 00:00 15.5 - 89.2
Thu, Aug 22, 2019 23:00 17.1 - 81.9
Thu, Aug 22, 2019 22:00 18.6 - 77.7
Thu, Aug 22, 2019 21:00 19.7 - 73.4
Thu, Aug 22, 2019 20:00 22.0 - 63.2
Thu, Aug 22, 2019 19:00 22.7 - 61.8


asterix Register now to access more data! asterix